Time;durP1;ratioP1;P1;durP2;ratioP2;P2;SDS_P1;SDS_P2;PMS_P1;PMS_P2;Temp;Humidity;BMP_temperature;BMP_pressure;BME280_temperature;BME280_humidity;BME280_pressure;Samples;Min_cycle;Max_cycle;Signal;HPM_P1;HPM_P2
2022/06/23 00:01:05;;;;;;;3.70;2.57;;;;;;;18.40;82.64;100864.66;5095288;28;20508;-75
2022/06/23 00:03:35;;;;;;;4.23;1.70;;;;;;;18.34;82.60;100862.53;5095278;28;20500;-75
2022/06/23 00:06:05;;;;;;;2.50;1.70;;;;;;;18.28;83.17;100859.25;5094998;28;20460;-75
2022/06/23 00:08:43;;;;;;;2.80;1.93;;;;;;;18.25;82.91;100862.66;5095349;28;20456;-75
2022/06/23 00:11:20;;;;;;;2.63;2.10;;;;;;;18.21;83.01;100869.97;5095048;28;20428;-75
2022/06/23 00:13:47;;;;;;;3.07;2.20;;;;;;;18.19;82.99;100860.50;5095046;28;20877;-75
2022/06/23 00:16:26;;;;;;;3.00;1.70;;;;;;;18.15;83.01;100869.44;5094664;28;20480;-75
2022/06/23 00:18:53;;;;;;;2.07;1.67;;;;;;;18.15;83.21;100871.38;5094894;28;20560;-75
2022/06/23 00:21:25;;;;;;;2.67;2.00;;;;;;;18.13;83.09;100870.91;5093885;28;20548;-75
2022/06/23 00:23:57;;;;;;;6.53;2.77;;;;;;;18.13;83.18;100859.94;5094585;28;20515;-74
2022/06/23 00:26:27;;;;;;;3.77;2.50;;;;;;;18.11;83.44;100864.97;5094803;28;20512;-75
2022/06/23 00:29:00;;;;;;;5.53;2.07;;;;;;;18.06;83.24;100865.19;5094468;28;20431;-75
2022/06/23 00:31:30;;;;;;;4.10;2.37;;;;;;;18.00;83.23;100869.31;5094455;28;20944;-75
2022/06/23 00:33:58;;;;;;;3.67;2.47;;;;;;;17.98;83.77;100866.13;5094373;28;20472;-75
2022/06/23 00:36:35;;;;;;;2.30;1.57;;;;;;;17.97;83.49;100870.78;5094283;28;20449;-75
2022/06/23 00:39:03;;;;;;;3.63;2.20;;;;;;;17.88;83.88;100864.63;5094555;28;20468;-75
2022/06/23 00:41:33;;;;;;;7.30;2.60;;;;;;;17.85;83.96;100863.41;5094565;28;20535;-74
2022/06/23 00:44:06;;;;;;;3.97;2.83;;;;;;;17.82;83.89;100869.56;5094441;28;20489;-75
2022/06/23 00:46:41;;;;;;;4.23;2.10;;;;;;;17.74;84.11;100870.47;5094413;28;20436;-74
2022/06/23 00:49:17;;;;;;;3.97;2.67;;;;;;;17.74;84.15;100875.94;5094085;28;20420;-75
2022/06/23 00:51:51;;;;;;;4.40;2.63;;;;;;;17.72;84.76;100867.25;5094637;28;20428;-74
2022/06/23 00:54:25;;;;;;;4.43;2.70;;;;;;;17.69;84.67;100870.66;5094339;28;20515;-74
2022/06/23 00:56:59;;;;;;;4.17;3.20;;;;;;;17.68;84.72;100874.56;5094141;28;20466;-75
2022/06/23 00:59:33;;;;;;;7.30;2.80;;;;;;;17.66;84.61;100876.81;5067572;22;20911;-70
2022/06/23 01:02:08;;;;;;;6.47;3.43;;;;;;;17.61;84.52;100883.31;5033694;28;20872;-71
2022/06/23 01:04:41;;;;;;;3.20;2.57;;;;;;;17.55;84.86;100881.97;5034038;28;20590;-70
2022/06/23 01:07:29;;;;;;;3.13;2.40;;;;;;;17.51;85.34;100877.50;5033903;28;20507;-72
2022/06/23 01:10:04;;;;;;;2.90;2.47;;;;;;;17.51;84.84;100878.28;5014172;28;20507;-68
2022/06/23 01:12:36;;;;;;;4.37;2.57;;;;;;;17.52;85.07;100879.09;5014181;28;20519;-68
2022/06/23 01:15:12;;;;;;;4.10;2.53;;;;;;;17.43;85.47;100883.88;5014068;28;20456;-69
2022/06/23 01:17:44;;;;;;;4.63;3.27;;;;;;;17.41;85.75;100881.50;5013981;28;20428;-67
2022/06/23 01:20:23;;;;;;;7.13;2.87;;;;;;;17.33;85.84;100877.69;5013820;28;20495;-69
2022/06/23 01:23:05;;;;;;;4.57;3.23;;;;;;;17.29;86.15;100879.50;5013669;28;20924;-69
2022/06/23 01:25:44;;;;;;;3.37;2.37;;;;;;;17.28;86.00;100880.66;5013615;28;20431;-70
2022/06/23 01:28:16;;;;;;;4.67;2.73;;;;;;;17.22;86.22;100876.56;5014111;28;20551;-71
2022/06/23 01:30:49;;;;;;;2.87;1.90;;;;;;;17.19;86.00;100879.97;5013918;28;20511;-71
2022/06/23 01:33:22;;;;;;;6.00;2.60;;;;;;;17.13;87.11;100876.66;5013513;28;20467;-71
2022/06/23 01:35:59;;;;;;;3.23;2.77;;;;;;;17.10;87.00;100871.84;5013741;28;20439;-72
2022/06/23 01:38:35;;;;;;;4.67;2.40;;;;;;;17.05;86.80;100871.25;5013386;28;21035;-71
2022/06/23 01:41:12;;;;;;;4.23;2.67;;;;;;;16.99;87.18;100873.38;5013886;28;20519;-70
2022/06/23 01:43:44;;;;;;;8.80;3.67;;;;;;;16.88;87.91;100869.47;5013890;28;20428;-69
2022/06/23 01:46:20;;;;;;;5.03;3.13;;;;;;;16.82;87.92;100866.16;5013552;28;20869;-69
2022/06/23 01:48:52;;;;;;;3.17;2.40;;;;;;;16.81;87.57;100871.94;5013536;28;20463;-69
2022/06/23 01:51:22;;;;;;;3.80;2.80;;;;;;;16.71;88.27;100873.13;5013803;28;20434;-69
2022/06/23 01:53:51;;;;;;;7.07;2.07;;;;;;;16.63;88.42;100874.81;5013516;28;20843;-70
2022/06/23 01:56:26;;;;;;;4.70;2.83;;;;;;;16.62;88.45;100877.88;5013551;28;20436;-70
2022/06/23 01:59:04;;;;;;;5.57;2.63;;;;;;;16.51;88.95;100882.16;5013040;28;20487;-70
2022/06/23 02:01:38;;;;;;;3.50;2.80;;;;;;;16.40;89.83;100887.22;5013494;28;20522;-70
2022/06/23 02:04:11;;;;;;;5.03;2.87;;;;;;;16.37;90.02;100888.69;5013918;28;20519;-71
2022/06/23 02:06:48;;;;;;;3.97;3.20;;;;;;;16.30;90.84;100884.88;5013607;28;20523;-69
2022/06/23 02:09:22;;;;;;;3.20;2.60;;;;;;;16.32;90.80;100885.34;5013340;28;20459;-70
2022/06/23 02:11:52;;;;;;;3.70;2.67;;;;;;;16.29;91.25;100886.00;5013359;28;20424;-70
2022/06/23 02:14:40;;;;;;;8.70;2.70;;;;;;;16.25;91.61;100883.16;5013280;28;20544;-69
2022/06/23 02:17:18;;;;;;;4.23;3.20;;;;;;;16.22;90.73;100886.53;5013318;28;20806;-70
2022/06/23 02:19:49;;;;;;;5.20;3.03;;;;;;;16.17;91.50;100900.41;5013248;28;20496;-70
2022/06/23 02:22:22;;;;;;;5.97;2.63;;;;;;;16.08;91.48;100891.47;5013347;28;20918;-70
2022/06/23 02:24:56;;;;;;;5.03;2.37;;;;;;;16.09;91.19;100898.53;5013360;28;20520;-70
2022/06/23 02:27:28;;;;;;;4.20;2.40;;;;;;;16.05;90.90;100892.09;5013219;28;20798;-70
2022/06/23 02:30:01;;;;;;;2.87;2.57;;;;;;;16.01;90.79;100902.09;5013214;28;20495;-69
2022/06/23 02:32:44;;;;;;;7.60;2.60;;;;;;;15.93;91.21;100908.41;5013250;28;20430;-69
2022/06/23 02:35:20;;;;;;;2.97;2.30;;;;;;;15.87;92.25;100903.13;5013137;28;20522;-70
2022/06/23 02:37:58;;;;;;;4.13;3.20;;;;;;;15.87;92.00;100902.34;5012800;28;20481;-71
2022/06/23 02:40:31;;;;;;;4.77;3.33;;;;;;;15.83;91.78;100902.19;5012791;28;21120;-69
2022/06/23 02:43:04;;;;;;;4.77;2.77;;;;;;;15.83;91.65;100902.19;5013381;28;20516;-70
2022/06/23 02:46:18;;;;;;;5.23;3.33;;;;;;;15.75;92.10;100911.22;5015763;28;20428;-69
2022/06/23 02:49:16;;;;;;;4.50;2.97;;;;;;;15.70;92.34;100914.13;5016730;28;20660;-70
2022/06/23 02:51:59;;;;;;;5.13;3.30;;;;;;;15.66;92.08;100921.38;5016277;28;20547;-71
2022/06/23 02:54:54;;;;;;;3.37;2.80;;;;;;;15.62;92.73;100931.31;5016750;28;20432;-70
2022/06/23 02:57:53;;;;;;;4.60;3.30;;;;;;;15.60;92.82;100930.84;5016297;28;20516;-69
2022/06/23 03:00:28;;;;;;;4.60;2.70;;;;;;;15.54;93.12;100932.16;5016412;28;20574;-70
2022/06/23 03:03:06;;;;;;;4.20;2.70;;;;;;;15.44;93.95;100927.03;5016574;28;20431;-71
2022/06/23 03:05:42;;;;;;;7.30;3.40;;;;;;;15.49;93.64;100926.84;5016462;28;20466;-71
2022/06/23 03:08:18;;;;;;;3.73;2.63;;;;;;;15.53;93.33;100936.00;5016024;28;20498;-71
2022/06/23 03:10:53;;;;;;;5.13;2.80;;;;;;;15.46;93.44;100925.59;5016435;28;20451;-71
2022/06/23 03:13:25;;;;;;;6.33;3.77;;;;;;;15.47;93.57;100927.19;5016297;28;20507;-69
2022/06/23 03:15:56;;;;;;;7.80;3.40;;;;;;;15.50;93.71;100936.66;5016251;28;20511;-69
2022/06/23 03:18:30;;;;;;;4.00;3.33;;;;;;;15.45;93.94;100934.09;5016632;28;20904;-70
2022/06/23 03:21:00;;;;;;;5.20;3.10;;;;;;;15.43;94.36;100930.91;5016110;28;20555;-69
2022/06/23 03:23:34;;;;;;;5.93;3.30;;;;;;;15.53;93.92;100934.06;5016109;28;20435;-70
2022/06/23 03:26:10;;;;;;;4.80;3.30;;;;;;;15.54;94.41;100930.22;5016159;28;20511;-70
2022/06/23 03:28:44;;;;;;;4.90;3.83;;;;;;;15.60;94.60;100930.84;5015987;28;20554;-70
2022/06/23 03:31:19;;;;;;;6.57;3.33;;;;;;;15.50;95.05;100942.94;5015999;28;20479;-69
2022/06/23 03:33:51;;;;;;;5.40;3.90;;;;;;;15.51;95.46;100947.25;5015925;28;20952;-70
2022/06/23 03:36:25;;;;;;;4.40;3.00;;;;;;;15.60;95.24;100945.28;5015902;28;20435;-70
2022/06/23 03:41:52;;;;;;;3.40;3.03;;;;;;;15.71;95.26;100943.03;5015879;28;20916;-70
2022/06/23 03:44:25;;;;;;;6.30;3.47;;;;;;;15.76;95.27;100950.25;5015477;28;20464;-70
2022/06/23 03:46:57;;;;;;;6.30;3.50;;;;;;;15.84;95.20;100957.63;5015742;28;20432;-69
2022/06/23 03:49:36;;;;;;;4.03;3.00;;;;;;;15.85;95.25;100965.50;5015673;28;20535;-70
2022/06/23 03:52:07;;;;;;;5.47;3.27;;;;;;;15.82;95.70;100960.69;5015621;28;20507;-70
2022/06/23 03:54:44;;;;;;;5.67;3.43;;;;;;;15.85;95.57;100960.03;5015597;28;20515;-70
2022/06/23 03:57:17;;;;;;;4.60;3.63;;;;;;;15.91;95.89;100962.59;5015617;28;20458;-70
2022/06/23 04:00:03;;;;;;;4.47;3.23;;;;;;;15.98;95.48;100966.41;5015027;28;20578;-69
2022/06/23 04:02:35;;;;;;;5.60;3.67;;;;;;;16.04;95.11;100964.28;5015398;28;20511;-70
2022/06/23 04:05:16;;;;;;;7.60;4.07;;;;;;;16.03;94.93;100968.16;5015282;28;20424;-70
2022/06/23 04:07:50;;;;;;;4.43;2.90;;;;;;;16.11;94.40;100970.03;5015269;28;20474;-70
2022/06/23 04:10:24;;;;;;;8.70;3.00;;;;;;;16.11;94.12;100972.75;5015305;28;20519;-70
2022/06/23 04:12:55;;;;;;;4.87;3.10;;;;;;;16.17;93.93;100971.47;5015217;28;20447;-70
2022/06/23 04:15:27;;;;;;;3.63;2.70;;;;;;;16.24;93.72;100976.41;5015274;28;20523;-70
2022/06/23 04:17:58;;;;;;;4.93;3.20;;;;;;;16.33;93.49;100975.22;5015028;28;20985;-70
2022/06/23 04:20:33;;;;;;;5.10;3.80;;;;;;;16.37;92.95;100981.63;5014664;28;20551;-69
2022/06/23 04:23:05;;;;;;;5.53;3.43;;;;;;;16.46;92.58;100994.47;5014702;28;20948;-71
2022/06/23 04:25:46;;;;;;;6.53;3.30;;;;;;;16.52;92.21;100990.41;5014980;28;20459;-70
2022/06/23 04:28:22;;;;;;;5.07;3.53;;;;;;;16.61;92.09;100991.97;5014854;28;20555;-70
2022/06/23 04:30:49;;;;;;;5.67;3.10;;;;;;;16.70;91.43;100999.31;5014591;28;20792;-70
2022/06/23 04:33:19;;;;;;;5.63;3.03;;;;;;;16.76;91.21;100998.00;5014775;28;20538;-71
2022/06/23 04:35:51;;;;;;;4.57;2.57;;;;;;;16.77;90.87;100994.94;5014582;28;20463;-70
2022/06/23 04:38:26;;;;;;;4.30;2.83;;;;;;;16.83;90.66;100999.09;5014591;28;20464;-71
2022/06/23 04:40:59;;;;;;;6.20;3.43;;;;;;;16.88;90.57;101000.81;5014441;28;20468;-70
2022/06/23 04:43:35;;;;;;;5.00;2.97;;;;;;;16.98;90.33;101013.31;5014681;28;20519;-70
2022/06/23 04:46:07;;;;;;;3.40;3.10;;;;;;;17.04;89.89;101014.69;5014589;28;20511;-72
2022/06/23 04:48:44;;;;;;;5.70;2.73;;;;;;;17.12;89.54;101008.34;5014493;28;20468;-71
2022/06/23 04:51:27;;;;;;;6.60;2.47;;;;;;;17.17;89.34;101007.34;5014549;28;20438;-70
2022/06/23 04:53:59;;;;;;;4.87;3.03;;;;;;;17.23;89.66;101015.03;5014592;28;20440;-70
2022/06/23 04:56:34;;;;;;;5.27;3.13;;;;;;;17.27;89.06;101007.75;5014565;28;20507;-73
2022/06/23 04:59:08;;;;;;;4.90;2.70;;;;;;;17.31;88.94;101013.34;5014201;28;20507;-74
2022/06/23 05:01:40;;;;;;;4.87;2.40;;;;;;;17.33;88.07;101011.88;5014629;28;20475;-72
2022/06/23 05:04:18;;;;;;;5.20;3.03;;;;;;;17.38;87.98;101019.88;5014000;28;20896;-73
2022/06/23 05:06:49;;;;;;;5.87;2.97;;;;;;;17.43;87.75;101012.59;5013902;28;20464;-72
2022/06/23 05:09:23;;;;;;;5.37;3.00;;;;;;;17.48;86.32;101012.38;5014544;28;20483;-71
2022/06/23 05:11:53;;;;;;;6.13;3.27;;;;;;;17.57;86.35;101016.63;5014354;28;20523;-75
2022/06/23 05:14:29;;;;;;;6.23;3.23;;;;;;;17.64;85.93;101019.63;5014339;28;20455;-74
2022/06/23 05:17:05;;;;;;;3.37;2.40;;;;;;;17.74;85.50;101017.63;5015182;28;20934;-69
2022/06/23 05:19:35;;;;;;;2.50;2.00;;;;;;;17.82;85.30;101016.75;5014123;28;20577;-73
2022/06/23 05:22:17;;;;;;;3.20;2.23;;;;;;;17.85;84.96;101016.88;5014513;28;20475;-73
2022/06/23 05:24:46;;;;;;;4.07;2.37;;;;;;;17.94;84.71;101021.47;5014062;28;20424;-71
2022/06/23 05:27:20;;;;;;;3.60;2.10;;;;;;;18.00;84.96;101018.16;5014082;28;20444;-72
2022/06/23 05:29:54;;;;;;;3.17;2.60;;;;;;;18.04;84.23;101021.81;5014001;28;20419;-71
2022/06/23 05:32:25;;;;;;;5.87;2.30;;;;;;;18.10;82.56;101030.59;5014062;28;20459;-73
2022/06/23 05:34:58;;;;;;;3.80;2.30;;;;;;;18.13;81.99;101027.97;5013734;28;20898;-75
2022/06/23 05:37:33;;;;;;;3.80;2.50;;;;;;;18.20;81.34;101029.38;5013931;28;20440;-74
2022/06/23 05:40:15;;;;;;;6.60;2.77;;;;;;;18.23;81.75;101020.44;5013829;28;20467;-75
2022/06/23 05:42:47;;;;;;;4.40;2.63;;;;;;;18.30;81.44;101026.19;5013747;28;20541;-75
2022/06/23 05:45:18;;;;;;;9.83;3.10;;;;;;;18.40;81.60;101021.03;5013568;28;20589;-74
2022/06/23 05:47:46;;;;;;;4.33;2.37;;;;;;;18.50;80.61;101024.44;5013393;28;21013;-74
2022/06/23 05:50:16;;;;;;;4.80;2.37;;;;;;;18.60;80.11;101026.75;5013730;28;20444;-74
2022/06/23 05:52:50;;;;;;;2.33;2.00;;;;;;;18.67;79.83;101029.69;5013972;28;20440;-74
2022/06/23 05:55:26;;;;;;;3.67;2.47;;;;;;;18.70;79.55;101037.28;5013592;28;20514;-74
2022/06/23 05:57:58;;;;;;;3.83;2.17;;;;;;;18.80;78.37;101033.25;5013385;28;20507;-73
2022/06/23 06:00:29;;;;;;;3.93;2.07;;;;;;;18.90;78.76;101032.78;5013627;28;20479;-74
2022/06/23 06:03:01;;;;;;;4.37;2.43;;;;;;;18.98;77.05;101034.59;5013908;28;20452;-74
2022/06/23 06:05:32;;;;;;;2.50;1.97;;;;;;;19.08;75.04;101031.38;5013641;28;20502;-74
2022/06/23 06:08:05;;;;;;;3.73;2.17;;;;;;;19.18;76.18;101038.31;5013178;28;21016;-74
2022/06/23 06:10:33;;;;;;;5.93;2.17;;;;;;;19.23;75.99;101035.31;5013670;28;20504;-73
2022/06/23 06:13:01;;;;;;;3.17;1.60;;;;;;;19.33;75.42;101048.56;5013447;28;20534;-74
2022/06/23 06:15:32;;;;;;;2.77;1.70;;;;;;;19.44;75.07;101048.09;5013132;28;20447;-75
2022/06/23 06:18:07;;;;;;;2.40;1.97;;;;;;;19.51;75.14;101053.75;5012969;28;20910;-74
2022/06/23 06:20:34;;;;;;;2.77;1.97;;;;;;;19.59;75.23;101053.59;5015993;28;20580;-73
2022/06/23 06:23:07;;;;;;;4.87;2.07;;;;;;;19.68;74.22;101055.44;5017372;28;20492;-73
2022/06/23 06:25:36;;;;;;;4.20;2.20;;;;;;;19.72;73.08;101053.59;5017336;28;20452;-74
2022/06/23 06:28:15;;;;;;;3.67;2.27;;;;;;;19.82;72.33;101055.81;5016822;28;20499;-75
2022/06/23 06:30:47;;;;;;;4.70;2.50;;;;;;;19.93;72.79;101053.38;5017307;28;20507;-73
2022/06/23 06:33:30;;;;;;;2.67;1.70;;;;;;;20.01;72.35;101055.13;5016899;28;20743;-73
2022/06/23 06:35:57;;;;;;;4.60;1.80;;;;;;;20.08;71.06;101052.56;5017414;28;20519;-73
2022/06/23 06:38:27;;;;;;;2.00;1.30;;;;;;;20.19;70.56;101059.16;5016778;28;20904;-74
2022/06/23 06:40:56;;;;;;;2.07;1.50;;;;;;;20.27;70.34;101049.91;5016959;28;20578;-73
2022/06/23 06:43:28;;;;;;;4.10;1.93;;;;;;;20.36;70.17;101058.81;5017000;28;20444;-74
2022/06/23 06:45:57;;;;;;;2.90;1.80;;;;;;;20.45;70.82;101064.09;5016691;28;20475;-74
2022/06/23 06:48:27;;;;;;;2.00;1.80;;;;;;;20.52;69.79;101063.50;5016486;28;20482;-74
2022/06/23 06:51:00;;;;;;;2.27;1.87;;;;;;;20.58;69.34;101057.38;5016786;28;20428;-73
2022/06/23 06:53:34;;;;;;;3.40;2.07;;;;;;;20.65;69.42;101062.25;5016853;28;20494;-74
2022/06/23 06:56:08;;;;;;;1.70;1.30;;;;;;;20.68;67.18;101053.28;5016661;28;20510;-73
2022/06/23 06:58:42;;;;;;;7.57;2.23;;;;;;;20.68;66.34;101053.28;5016591;28;20578;-74
2022/06/23 07:01:15;;;;;;;3.00;1.83;;;;;;;20.75;67.02;101056.19;5016602;28;20514;-74
2022/06/23 07:03:45;;;;;;;2.03;1.60;;;;;;;20.83;66.75;101068.16;5016486;28;20804;-74
2022/06/23 07:06:16;;;;;;;1.70;1.30;;;;;;;20.84;66.36;101061.50;5016290;28;20420;-74
2022/06/23 07:08:48;;;;;;;2.20;1.50;;;;;;;20.94;67.08;101065.66;5016438;28;20476;-74
2022/06/23 07:13:47;;;;;;;5.33;1.47;;;;;;;21.08;67.33;101046.69;5075028;28;20476;-77
2022/06/23 07:16:21;;;;;;;5.30;1.30;;;;;;;21.17;67.09;101056.34;5076601;28;20527;-77
2022/06/23 07:18:52;;;;;;;6.10;1.87;;;;;;;21.26;66.75;101056.13;5076385;28;20516;-77
2022/06/23 07:21:22;;;;;;;4.10;1.83;;;;;;;21.35;67.07;101053.97;5076360;28;20905;-77
2022/06/23 07:23:58;;;;;;;2.47;1.50;;;;;;;21.39;65.07;101054.84;5076505;28;20445;-78
2022/06/23 07:26:36;;;;;;;3.97;1.70;;;;;;;21.57;62.27;101059.94;5076331;28;20431;-77
2022/06/23 07:29:09;;;;;;;3.23;1.80;;;;;;;21.66;63.31;101060.50;5076667;28;20426;-78
2022/06/23 07:31:44;;;;;;;5.30;1.50;;;;;;;21.75;63.78;101066.56;5076746;28;20540;-78
2022/06/23 07:34:13;;;;;;;2.67;1.80;;;;;;;21.76;63.13;101070.91;5076822;28;20456;-78
2022/06/23 07:36:44;;;;;;;1.50;1.37;;;;;;;21.87;63.24;101060.91;5077016;28;20533;-78
2022/06/23 07:39:15;;;;;;;1.53;1.33;;;;;;;21.94;63.42;101070.47;5076648;28;20535;-78
2022/06/23 07:41:48;;;;;;;1.93;1.43;;;;;;;22.05;62.83;101065.94;5075929;28;20576;-77
2022/06/23 07:44:20;;;;;;;2.00;1.27;;;;;;;22.11;62.96;101069.97;5076104;28;20489;-77
2022/06/23 07:46:47;;;;;;;1.47;1.30;;;;;;;22.14;63.42;101067.31;5075624;28;20429;-77
2022/06/23 07:49:14;;;;;;;2.73;1.60;;;;;;;22.25;63.51;101064.72;5075468;28;20520;-77
2022/06/23 07:51:41;;;;;;;3.27;1.70;;;;;;;22.39;61.68;101069.69;5075265;28;20548;-76
2022/06/23 07:54:15;;;;;;;2.07;1.40;;;;;;;22.49;60.71;101066.31;5075023;28;20452;-76
2022/06/23 07:56:42;;;;;;;3.37;1.73;;;;;;;22.56;61.78;101071.13;5075298;28;20521;-76
2022/06/23 07:59:11;;;;;;;2.50;1.53;;;;;;;22.64;61.40;101070.09;5075179;28;20442;-77
2022/06/23 08:01:43;;;;;;;3.20;1.47;;;;;;;22.72;62.17;101066.28;5075285;28;20485;-77
2022/06/23 08:04:17;;;;;;;1.60;1.00;;;;;;;22.81;66.34;101058.50;5074805;28;20550;-76
2022/06/23 08:06:44;;;;;;;2.07;1.70;;;;;;;22.80;70.32;101065.22;5074819;28;20993;-77
2022/06/23 08:09:17;;;;;;;1.90;1.40;;;;;;;22.77;72.73;101063.19;5074988;28;20533;-77
2022/06/23 08:14:31;;;;;;;1.50;1.10;;;;;;;22.56;70.20;101052.59;5074785;28;20428;-70
2022/06/23 08:16:59;;;;;;;3.80;1.67;;;;;;;22.52;72.51;101064.75;5074980;28;20430;-76
2022/06/23 08:19:38;;;;;;;3.23;1.50;;;;;;;22.47;73.53;101054.84;5074875;28;20473;-76
2022/06/23 08:22:10;;;;;;;1.73;1.47;;;;;;;22.38;72.60;101059.81;5074717;28;20575;-71
2022/06/23 08:24:40;;;;;;;2.57;1.67;;;;;;;22.40;63.77;101068.50;5074761;28;20500;-74
2022/06/23 08:27:10;;;;;;;3.70;2.03;;;;;;;22.59;71.19;101064.88;5074986;28;20437;-75
2022/06/23 08:29:43;;;;;;;2.20;1.50;;;;;;;22.64;74.23;101065.34;5074810;28;20480;-76
2022/06/23 08:32:10;;;;;;;3.90;1.90;;;;;;;22.64;73.83;101067.31;5074142;28;20493;-76
2022/06/23 08:34:41;;;;;;;2.33;1.57;;;;;;;22.65;74.99;101064.19;5074543;28;20484;-76
2022/06/23 08:37:18;;;;;;;3.93;1.90;;;;;;;22.57;69.83;101068.00;5074468;28;20456;-75
2022/06/23 08:39:53;;;;;;;2.30;1.80;;;;;;;22.54;63.43;101054.94;5074124;28;20444;-76
2022/06/23 08:42:25;;;;;;;3.67;1.60;;;;;;;22.71;68.44;101061.09;5073387;28;20489;-76
2022/06/23 08:45:07;;;;;;;1.90;1.70;;;;;;;22.72;70.57;101052.47;5074249;28;20436;-77
2022/06/23 08:47:45;;;;;;;1.50;1.40;;;;;;;22.69;73.17;101049.63;5074115;28;20425;-77
2022/06/23 08:50:18;;;;;;;2.90;1.90;;;;;;;22.71;66.81;101047.28;5074179;28;20465;-76
2022/06/23 08:52:51;;;;;;;1.57;1.17;;;;;;;22.80;68.26;101042.28;5073642;28;20556;-76
2022/06/23 08:55:26;;;;;;;1.70;1.50;;;;;;;22.87;70.08;101047.94;5074249;28;20520;-75
2022/06/23 08:57:59;;;;;;;5.57;2.10;;;;;;;22.91;71.80;101044.06;5073664;28;20472;-74
2022/06/23 09:00:37;;;;;;;2.17;1.70;;;;;;;23.01;65.57;101044.59;5074663;28;20424;-77
2022/06/23 09:03:10;;;;;;;4.70;1.80;;;;;;;23.16;57.14;101049.13;5074476;28;20544;-77
2022/06/23 09:05:44;;;;;;;1.70;1.57;;;;;;;23.37;60.05;101046.66;5073931;28;20517;-76
2022/06/23 09:08:21;;;;;;;2.23;1.73;;;;;;;23.46;60.59;101043.56;5073771;28;20431;-76
2022/06/23 09:10:57;;;;;;;1.73;1.33;;;;;;;23.47;53.68;101036.88;5073680;28;20425;-75
2022/06/23 09:13:41;;;;;;;12.60;1.73;;;;;;;23.64;53.28;101035.47;5073242;28;20472;-77
2022/06/23 09:16:42;;;;;;;1.73;1.40;;;;;;;23.82;52.69;101035.69;5074959;28;20429;-78
2022/06/23 09:19:25;;;;;;;3.10;1.30;;;;;;;23.99;52.70;101034.25;5074730;28;20518;-74
2022/06/23 09:22:18;;;;;;;2.13;1.30;;;;;;;24.09;50.83;101028.03;5074195;28;20523;-79
2022/06/23 09:24:58;;;;;;;1.57;1.30;;;;;;;24.29;51.55;101029.38;5073891;28;20881;-72
2022/06/23 09:28:03;;;;;;;2.13;1.40;;;;;;;24.42;53.82;101027.91;5074004;28;20433;-74
2022/06/23 09:30:39;;;;;;;1.90;1.50;;;;;;;24.47;54.02;101023.19;5071055;28;20453;-76
2022/06/23 09:33:21;;;;;;;1.63;1.30;;;;;;;24.58;50.52;101022.09;5075021;28;20511;-76
2022/06/23 09:36:18;;;;;;;1.20;1.07;;;;;;;24.70;51.25;101018.19;5073791;28;20418;-76
2022/06/23 09:39:17;;;;;;;2.80;1.77;;;;;;;24.79;54.58;101015.06;5073343;28;20457;-75
2022/06/23 09:42:12;;;;;;;4.73;1.53;;;;;;;24.92;54.84;101019.09;5053052;28;20572;-75
2022/06/23 09:45:05;;;;;;;2.00;1.20;;;;;;;25.06;53.44;101021.97;5073397;28;20445;-74
2022/06/23 09:47:55;;;;;;;2.63;1.47;;;;;;;25.18;49.32;101020.84;5073643;28;20468;-74
2022/06/23 09:50:38;;;;;;;1.93;1.30;;;;;;;25.28;49.02;101019.28;5073431;28;20432;-72
2022/06/23 09:53:41;;;;;;;1.77;1.37;;;;;;;25.37;48.48;101023.31;5073224;28;20462;-71
2022/06/23 09:56:39;;;;;;;1.37;0.90;;;;;;;25.50;46.90;101020.13;5069683;28;20532;-70
2022/06/23 09:59:37;;;;;;;8.53;1.10;;;;;;;25.64;40.16;101007.13;5073236;28;20459;-67
2022/06/23 10:02:16;;;;;;;2.10;1.27;;;;;;;25.76;43.15;101016.22;5067412;28;20569;-68
2022/06/23 10:05:02;;;;;;;1.33;1.20;;;;;;;25.82;42.81;101020.25;5072805;28;20974;-70
2022/06/23 10:07:54;;;;;;;1.70;1.10;;;;;;;25.95;43.86;101023.44;5073106;28;20481;-72
2022/06/23 10:10:36;;;;;;;2.17;1.33;;;;;;;26.00;44.96;101017.50;5073014;28;20517;-71
2022/06/23 10:13:18;;;;;;;2.00;1.03;;;;;;;26.09;44.60;101017.88;5072630;28;20481;-70
2022/06/23 10:15:57;;;;;;;2.37;1.13;;;;;;;26.19;44.11;101016.28;5072761;28;20432;-71
2022/06/23 10:18:46;;;;;;;1.77;0.87;;;;;;;26.30;38.92;101017.09;5073085;28;20552;-73
2022/06/23 10:21:26;;;;;;;1.97;1.20;;;;;;;26.42;40.54;101009.13;5070082;28;20485;-69
2022/06/23 10:24:19;;;;;;;10.13;1.50;;;;;;;26.51;42.24;101013.50;5072700;28;20883;-73
2022/06/23 10:26:59;;;;;;;1.57;1.20;;;;;;;26.58;42.94;101010.72;5072973;28;20516;-72
2022/06/23 10:29:43;;;;;;;1.43;1.10;;;;;;;26.71;42.82;101009.09;5072904;28;20516;-72
2022/06/23 10:32:32;;;;;;;2.00;1.53;;;;;;;26.82;42.81;101009.84;5072831;28;20538;-72
2022/06/23 10:35:14;;;;;;;1.63;1.23;;;;;;;26.88;43.35;101016.59;5072835;28;20430;-72
2022/06/23 10:37:58;;;;;;;1.63;1.30;;;;;;;27.04;42.27;101010.56;5072466;28;21014;-72
2022/06/23 10:40:55;;;;;;;1.07;0.93;;;;;;;27.15;41.91;101010.56;5072562;28;20512;-71
2022/06/23 10:43:40;;;;;;;1.43;1.27;;;;;;;27.20;41.45;101012.13;5050376;28;20487;-72
2022/06/23 10:46:14;;;;;;;1.67;1.20;;;;;;;27.34;42.33;101007.28;5072722;28;20497;-72
2022/06/23 10:48:56;;;;;;;1.70;1.47;;;;;;;27.49;39.84;101012.75;5072727;28;20422;-72
2022/06/23 10:51:42;;;;;;;1.83;1.43;;;;;;;27.49;40.06;101007.97;5072629;28;20541;-75
2022/06/23 10:54:31;;;;;;;1.50;1.30;;;;;;;27.59;39.41;100998.00;5072644;28;20485;-76
2022/06/23 10:57:14;;;;;;;1.47;1.00;;;;;;;27.71;37.94;100994.72;5072745;28;20473;-75
2022/06/23 11:00:05;;;;;;;2.00;1.10;;;;;;;27.70;37.84;100993.13;5072644;28;20870;-75
2022/06/23 11:03:12;;;;;;;2.10;1.60;;;;;;;27.79;38.85;100992.69;5072051;28;20571;-75
2022/06/23 11:05:56;;;;;;;1.60;1.30;;;;;;;27.92;39.16;101000.16;5073494;28;20906;-72
2022/06/23 11:08:45;;;;;;;1.93;1.30;;;;;;;28.16;41.16;100995.59;5076192;28;20461;-71
2022/06/23 11:11:26;;;;;;;2.40;1.57;;;;;;;28.46;39.22;100987.75;5075736;28;20512;-71
2022/06/23 11:14:00;;;;;;;1.17;1.00;;;;;;;28.68;40.36;100989.09;5076153;28;20426;-72
2022/06/23 11:16:40;;;;;;;0.97;0.70;;;;;;;28.90;38.30;100992.44;5076003;28;20924;-75
2022/06/23 11:19:26;;;;;;;2.23;1.50;;;;;;;29.07;36.58;100983.09;5075930;28;20517;-77
2022/06/23 11:22:05;;;;;;;1.67;1.20;;;;;;;29.38;38.71;100986.63;5075782;28;20497;-74
2022/06/23 11:24:42;;;;;;;1.30;1.10;;;;;;;29.76;37.72;100978.13;5075925;28;20513;-75
2022/06/23 11:27:17;;;;;;;3.57;1.07;;;;;;;30.14;35.13;100983.50;5075555;28;20971;-75
2022/06/23 11:30:02;;;;;;;1.40;1.00;;;;;;;30.44;34.16;100971.38;5075641;28;20463;-76
2022/06/23 11:32:40;;;;;;;1.50;1.30;;;;;;;30.73;33.45;100979.25;5075651;28;20453;-74
2022/06/23 11:35:24;;;;;;;1.00;0.80;;;;;;;31.03;32.29;100983.81;5075238;28;20899;-74
2022/06/23 11:38:09;;;;;;;1.70;1.37;;;;;;;31.20;33.71;100982.63;5075622;28;20530;-74
2022/06/23 11:40:57;;;;;;;3.53;1.30;;;;;;;31.38;34.21;100968.25;5075537;28;20457;-74
2022/06/23 11:43:32;;;;;;;1.23;0.93;;;;;;;31.69;34.34;100974.31;5075386;28;20567;-74
2022/06/23 11:46:16;;;;;;;0.80;0.77;;;;;;;32.21;32.82;100973.44;5075575;28;20463;-74
2022/06/23 11:49:04;;;;;;;1.93;1.13;;;;;;;32.64;32.97;100973.06;5075449;28;20513;-74
2022/06/23 11:51:47;;;;;;;3.37;1.07;;;;;;;32.38;30.80;100977.03;5074997;28;20887;-74
2022/06/23 11:54:30;;;;;;;1.57;1.10;;;;;;;32.80;32.21;100979.84;5074960;28;20842;-74
2022/06/23 11:57:12;;;;;;;1.17;0.70;;;;;;;32.93;31.93;100971.47;5075326;28;20425;-74
2022/06/23 11:59:52;;;;;;;1.23;1.07;;;;;;;32.60;30.57;100978.00;5075390;28;20437;-73
2022/06/23 12:02:19;;;;;;;3.97;1.10;;;;;;;32.87;32.61;100965.63;5075061;28;20488;-73
2022/06/23 12:05:01;;;;;;;2.40;1.20;;;;;;;33.13;31.56;100958.03;5075146;28;20524;-74
2022/06/23 12:07:48;;;;;;;1.50;1.07;;;;;;;33.44;31.35;100960.31;5075116;28;20461;-74
2022/06/23 12:10:17;;;;;;;1.10;0.90;;;;;;;33.76;32.33;100965.66;5074903;28;20436;-75
2022/06/23 12:12:48;;;;;;;2.00;1.30;;;;;;;33.69;29.21;100957.50;5074493;28;20469;-74
2022/06/23 12:15:20;;;;;;;6.07;1.30;;;;;;;33.79;31.32;100958.38;5074837;28;20422;-74